Time;durP1;ratioP1;P1;durP2;ratioP2;P2;SDS_P1;SDS_P2;PMS_P1;PMS_P2;Temp;Humidity;BMP_temperature;BMP_pressure;BME280_temperature;BME280_humidity;BME280_pressure;Samples;Min_cycle;Max_cycle;Signal;HPM_P1;HPM_P2
2021/07/08 00:01:19;;;;;;;3.47;2.58;;;20.20;99.90;;;;;;4973823;28;20033;-74
2021/07/08 00:03:45;;;;;;;3.03;2.50;;;20.20;99.90;;;;;;4973727;28;20606;-74
2021/07/08 00:06:11;;;;;;;3.60;2.92;;;20.20;99.90;;;;;;4973998;28;20081;-74
2021/07/08 00:08:37;;;;;;;4.80;2.70;;;20.10;99.90;;;;;;4973510;28;20034;-74
2021/07/08 00:11:02;;;;;;;3.25;2.58;;;20.10;99.90;;;;;;4973825;28;20066;-74
2021/07/08 00:13:29;;;;;;;3.85;2.80;;;20.20;99.90;;;;;;4973619;28;20029;-74
2021/07/08 00:15:56;;;;;;;3.00;2.63;;;20.10;99.90;;;;;;4973608;28;20042;-74
2021/07/08 00:18:24;;;;;;;2.80;2.40;;;20.10;99.90;;;;;;4973441;28;20026;-74
2021/07/08 00:20:51;;;;;;;3.28;2.97;;;20.00;99.90;;;;;;4973487;28;20060;-73
2021/07/08 00:23:19;;;;;;;5.07;3.17;;;19.90;99.90;;;;;;4973248;28;20030;-73
2021/07/08 00:25:47;;;;;;;4.55;3.20;;;19.90;99.90;;;;;;4973201;28;20110;-73
2021/07/08 00:28:13;;;;;;;4.05;2.97;;;19.80;99.90;;;;;;4971916;28;20037;-73
2021/07/08 00:30:40;;;;;;;4.15;2.88;;;19.80;99.90;;;;;;4973019;28;20034;-74
2021/07/08 00:33:06;;;;;;;3.92;2.97;;;19.80;99.90;;;;;;4973242;28;20031;-74
2021/07/08 00:35:32;;;;;;;5.30;3.38;;;19.80;99.90;;;;;;4973421;28;20038;-74
2021/07/08 00:37:58;;;;;;;6.57;3.50;;;19.80;99.90;;;;;;4973427;28;20023;-74
2021/07/08 00:40:23;;;;;;;5.13;3.20;;;19.80;99.90;;;;;;4973172;28;20045;-73
2021/07/08 00:42:51;;;;;;;3.22;2.92;;;19.80;99.90;;;;;;4972950;28;20501;-74
2021/07/08 00:45:19;;;;;;;3.42;3.10;;;19.90;99.90;;;;;;4973216;28;20050;-73
2021/07/08 00:47:45;;;;;;;4.47;3.33;;;19.90;99.90;;;;;;4972864;28;20035;-74
2021/07/08 00:50:12;;;;;;;4.32;3.30;;;19.90;99.90;;;;;;4972937;28;20126;-74
2021/07/08 00:52:38;;;;;;;6.25;3.40;;;20.00;99.90;;;;;;4972512;28;20045;-74
2021/07/08 00:55:09;;;;;;;3.85;3.40;;;20.00;99.90;;;;;;4973316;28;20027;-74
2021/07/08 00:57:35;;;;;;;5.38;3.53;;;19.90;99.90;;;;;;4973071;28;20031;-74
2021/07/08 01:00:01;;;;;;;4.63;3.70;;;19.90;99.90;;;;;;4973001;28;20035;-74
2021/07/08 01:02:28;;;;;;;4.53;4.00;;;19.80;99.90;;;;;;4972876;28;20075;-74
2021/07/08 01:04:54;;;;;;;6.35;3.90;;;19.80;99.90;;;;;;4972778;28;20537;-74
2021/07/08 01:07:22;;;;;;;5.03;3.78;;;19.80;99.90;;;;;;4971709;28;20030;-73
2021/07/08 01:09:49;;;;;;;4.85;3.47;;;19.80;99.90;;;;;;4972917;28;20062;-72
2021/07/08 01:12:15;;;;;;;3.90;3.55;;;19.70;99.90;;;;;;4972951;28;20078;-73
2021/07/08 01:14:41;;;;;;;6.15;3.65;;;19.70;99.90;;;;;;4972749;28;20030;-72
2021/07/08 01:17:08;;;;;;;4.60;3.80;;;19.70;99.90;;;;;;4973130;28;20066;-73
2021/07/08 01:53:15;;;;;;;5.15;4.65;;;19.40;99.90;;;;;;5325469;23;20092;-72
2021/07/08 01:55:41;;;;;;;5.00;4.53;;;19.40;99.90;;;;;;4995365;28;20023;-72
2021/07/08 01:58:07;;;;;;;6.03;5.00;;;19.40;99.90;;;;;;4995348;28;20041;-72
2021/07/08 02:00:33;;;;;;;7.13;5.18;;;19.40;99.90;;;;;;4995460;28;20026;-72
2021/07/08 02:02:58;;;;;;;5.82;4.70;;;19.30;99.90;;;;;;4995276;28;20068;-72
2021/07/08 02:05:25;;;;;;;6.75;5.15;;;19.40;99.90;;;;;;4995184;28;20500;-72
2021/07/08 02:07:51;;;;;;;5.20;4.70;;;19.40;99.90;;;;;;4995535;28;20153;-72
2021/07/08 02:10:18;;;;;;;5.65;5.15;;;19.50;99.90;;;;;;4995009;28;20034;-73
2021/07/08 02:12:45;;;;;;;6.18;5.13;;;19.50;99.90;;;;;;4995314;28;20049;-72
2021/07/08 02:15:12;;;;;;;6.40;5.32;;;19.50;99.90;;;;;;4994938;28;20030;-72
2021/07/08 02:17:39;;;;;;;6.55;5.03;;;19.50;99.90;;;;;;4995342;28;20036;-73
2021/07/08 02:20:08;;;;;;;5.70;5.10;;;19.50;99.90;;;;;;4995191;28;20038;-72
2021/07/08 02:22:35;;;;;;;9.40;5.45;;;19.60;99.90;;;;;;4994869;28;20041;-72
2021/07/08 02:25:01;;;;;;;5.72;5.07;;;19.60;99.90;;;;;;4994942;28;20506;-72
2021/07/08 02:27:27;;;;;;;5.93;5.25;;;19.70;99.90;;;;;;4994986;28;20026;-72
2021/07/08 02:29:53;;;;;;;6.50;5.05;;;19.80;99.90;;;;;;4994737;28;20442;-72
2021/07/08 02:32:18;;;;;;;5.60;4.93;;;19.80;99.90;;;;;;4994726;28;20033;-72
2021/07/08 02:34:47;;;;;;;9.57;5.22;;;19.80;99.90;;;;;;4994800;28;20033;-73
2021/07/08 02:37:13;;;;;;;5.57;4.97;;;19.80;99.90;;;;;;4994964;28;20026;-72
2021/07/08 02:39:39;;;;;;;5.90;5.07;;;19.90;99.90;;;;;;4994577;28;20030;-73
2021/07/08 02:42:05;;;;;;;7.72;5.00;;;19.90;99.90;;;;;;4994625;28;20026;-72
2021/07/08 02:44:32;;;;;;;6.13;4.70;;;19.90;99.90;;;;;;4994333;28;20035;-73
2021/07/08 02:46:57;;;;;;;5.82;5.00;;;19.90;99.90;;;;;;4994557;28;20501;-73
2021/07/08 02:49:24;;;;;;;5.43;4.93;;;20.00;99.90;;;;;;4994230;28;20038;-73
2021/07/08 02:51:50;;;;;;;11.02;5.07;;;20.00;99.90;;;;;;4991606;28;20116;-73
2021/07/08 02:54:16;;;;;;;5.40;4.63;;;20.00;99.90;;;;;;4975147;28;20521;-73
2021/07/08 02:56:41;;;;;;;6.30;4.80;;;20.00;99.90;;;;;;4974959;28;20046;-73
2021/07/08 02:59:07;;;;;;;5.85;5.15;;;20.10;99.90;;;;;;4975214;28;20081;-73
2021/07/08 03:01:33;;;;;;;5.75;5.15;;;20.10;99.90;;;;;;4974806;28;20049;-73
2021/07/08 03:03:58;;;;;;;5.68;5.13;;;20.10;99.90;;;;;;4974982;28;20034;-73
2021/07/08 03:06:24;;;;;;;5.90;4.93;;;20.10;99.90;;;;;;4974669;28;20493;-72
2021/07/08 03:08:50;;;;;;;5.72;5.22;;;20.10;99.90;;;;;;4974968;28;20038;-72
2021/07/08 03:11:15;;;;;;;5.68;5.05;;;20.10;99.90;;;;;;4974606;28;20405;-72
2021/07/08 03:13:42;;;;;;;6.30;5.50;;;20.10;99.90;;;;;;4974648;28;20102;-73
2021/07/08 03:16:09;;;;;;;5.60;5.07;;;20.10;99.90;;;;;;4974854;28;20035;-72
2021/07/08 03:18:35;;;;;;;8.68;5.53;;;20.10;99.90;;;;;;4974436;28;20019;-72
2021/07/08 03:21:00;;;;;;;6.68;5.63;;;20.00;99.90;;;;;;4974778;28;20030;-72
2021/07/08 03:23:26;;;;;;;5.95;5.38;;;20.00;99.90;;;;;;4974598;28;20356;-72
2021/07/08 03:25:52;;;;;;;5.90;5.30;;;20.00;99.90;;;;;;4974389;28;20029;-72
2021/07/08 03:28:19;;;;;;;8.07;5.53;;;20.00;99.90;;;;;;4974346;28;20098;-72
2021/07/08 03:30:44;;;;;;;6.15;5.25;;;20.10;99.90;;;;;;4974486;28;20034;-72
2021/07/08 03:33:10;;;;;;;8.52;5.93;;;20.10;99.90;;;;;;4974413;28;20137;-72
2021/07/08 03:35:36;;;;;;;6.35;5.60;;;20.20;99.90;;;;;;4974113;28;20046;-72
2021/07/08 03:38:02;;;;;;;8.23;4.93;;;20.20;99.90;;;;;;4974401;28;20019;-72
2021/07/08 03:40:29;;;;;;;6.43;5.30;;;20.20;99.90;;;;;;4973961;28;20035;-73
2021/07/08 03:42:55;;;;;;;5.55;4.95;;;20.20;99.90;;;;;;4973985;28;20030;-73
2021/07/08 03:45:23;;;;;;;6.63;5.40;;;20.20;99.90;;;;;;4974184;28;20022;-73
2021/07/08 03:47:49;;;;;;;4.95;4.00;;;20.20;99.90;;;;;;4974175;28;20480;-72
2021/07/08 03:50:15;;;;;;;7.28;4.22;;;20.30;99.90;;;;;;4974028;28;20117;-73
2021/07/08 03:52:42;;;;;;;4.45;4.05;;;20.30;99.90;;;;;;4973630;28;20406;-72
2021/07/08 03:55:10;;;;;;;4.93;4.43;;;20.30;99.90;;;;;;4974132;28;20445;-72
2021/07/08 03:57:36;;;;;;;4.95;4.45;;;20.30;99.90;;;;;;4973591;28;20030;-73
2021/07/08 04:00:05;;;;;;;4.30;3.90;;;20.30;99.90;;;;;;4973824;28;20023;-73
2021/07/08 04:02:33;;;;;;;6.65;3.95;;;20.40;99.90;;;;;;4973466;28;20037;-73
2021/07/08 04:04:59;;;;;;;5.90;4.07;;;20.40;99.90;;;;;;4972334;28;20027;-73
2021/07/08 04:07:24;;;;;;;5.07;3.75;;;20.40;99.90;;;;;;4973528;28;20023;-73
2021/07/08 04:09:50;;;;;;;7.05;4.38;;;20.60;99.90;;;;;;4973508;28;20039;-73
2021/07/08 04:12:16;;;;;;;4.57;4.18;;;20.70;99.90;;;;;;4973760;28;20030;-73
2021/07/08 04:14:41;;;;;;;4.03;3.63;;;21.20;99.90;;;;;;4973300;28;20063;-73
2021/07/08 04:17:07;;;;;;;5.10;4.25;;;21.60;99.90;;;;;;4973524;28;20471;-72
2021/07/08 04:19:33;;;;;;;3.95;3.65;;;22.10;99.90;;;;;;4973655;28;20113;-72
2021/07/08 04:21:59;;;;;;;4.15;3.50;;;22.60;99.90;;;;;;4973734;28;20474;-73
2021/07/08 04:24:24;;;;;;;5.45;3.70;;;22.90;99.90;;;;;;4973281;28;20019;-73
2021/07/08 04:26:50;;;;;;;7.90;3.97;;;23.20;99.90;;;;;;4973829;28;20113;-73
2021/07/08 04:29:16;;;;;;;4.57;3.70;;;23.60;99.90;;;;;;4973537;28;20486;-74
2021/07/08 04:31:42;;;;;;;5.00;3.35;;;23.80;99.90;;;;;;4973708;28;20023;-71
2021/07/08 04:34:07;;;;;;;8.48;4.07;;;24.10;99.90;;;;;;4973572;28;20389;-75
2021/07/08 04:36:33;;;;;;;3.83;3.42;;;24.20;99.90;;;;;;4973292;28;20502;-72
2021/07/08 04:38:59;;;;;;;6.22;3.00;;;24.60;99.90;;;;;;4973233;28;20143;-73
2021/07/08 04:41:25;;;;;;;4.22;3.08;;;24.80;99.90;;;;;;4973131;28;20106;-73
2021/07/08 04:43:50;;;;;;;5.93;3.88;;;25.20;99.90;;;;;;4965165;28;20097;-72
2021/07/08 04:46:16;;;;;;;4.28;3.63;;;25.40;99.90;;;;;;4953614;29;20028;-72
2021/07/08 04:48:43;;;;;;;6.70;3.42;;;25.50;99.60;;;;;;4953701;28;20122;-72
2021/07/08 04:51:09;;;;;;;6.18;3.58;;;25.50;98.70;;;;;;4953839;28;20031;-75
2021/07/08 04:53:35;;;;;;;3.30;3.00;;;25.50;98.30;;;;;;4952947;28;20122;-75
2021/07/08 04:56:01;;;;;;;6.95;3.20;;;25.80;97.40;;;;;;4953230;29;20039;-76
2021/07/08 04:58:27;;;;;;;4.20;3.00;;;25.80;97.20;;;;;;4952893;29;20024;-74
2021/07/08 05:00:53;;;;;;;7.20;3.25;;;26.10;96.30;;;;;;4952844;28;20035;-71
2021/07/08 05:03:18;;;;;;;6.28;3.00;;;26.30;95.50;;;;;;4953100;28;20110;-72
2021/07/08 05:05:44;;;;;;;6.28;3.13;;;26.70;94.80;;;;;;4952901;28;20094;-71
2021/07/08 05:08:10;;;;;;;3.15;2.63;;;26.80;93.90;;;;;;4953200;28;20032;-70
2021/07/08 05:10:36;;;;;;;3.30;2.85;;;26.90;92.40;;;;;;4952806;28;20046;-71
2021/07/08 05:13:01;;;;;;;5.07;2.88;;;26.80;92.10;;;;;;4952555;28;20579;-71
2021/07/08 05:15:27;;;;;;;6.03;2.65;;;26.90;91.40;;;;;;4952932;28;20031;-71
2021/07/08 05:17:53;;;;;;;3.28;2.92;;;27.10;90.80;;;;;;4952911;28;20510;-71
2021/07/08 05:20:19;;;;;;;5.40;2.95;;;27.40;90.10;;;;;;4952989;29;20020;-71
2021/07/08 05:22:47;;;;;;;5.03;2.92;;;27.60;87.50;;;;;;4952944;28;20394;-71
2021/07/08 05:25:15;;;;;;;7.65;2.65;;;27.40;86.60;;;;;;4953509;28;20034;-70
2021/07/08 05:27:41;;;;;;;4.38;2.95;;;27.40;86.50;;;;;;4956601;28;20419;-71
2021/07/08 05:30:09;;;;;;;4.55;2.42;;;27.60;85.90;;;;;;4956851;28;20054;-78
2021/07/08 05:32:35;;;;;;;5.40;3.08;;;27.50;84.00;;;;;;4956951;28;20059;-73
2021/07/08 05:35:02;;;;;;;5.70;2.90;;;27.50;84.70;;;;;;4957014;28;20086;-72
2021/07/08 05:37:28;;;;;;;5.93;2.40;;;27.70;82.50;;;;;;4957030;28;20070;-72
2021/07/08 05:39:54;;;;;;;14.00;3.65;;;27.70;81.80;;;;;;4957028;28;20078;-72
2021/07/08 05:42:20;;;;;;;13.45;3.25;;;27.90;81.70;;;;;;4956805;28;20530;-72
2021/07/08 05:44:45;;;;;;;6.35;2.75;;;27.90;79.50;;;;;;4956940;28;20027;-73
2021/07/08 05:47:12;;;;;;;4.80;3.40;;;27.80;79.80;;;;;;4957018;28;20020;-72
2021/07/08 05:49:38;;;;;;;6.05;3.40;;;27.70;78.50;;;;;;4956634;28;20123;-72
2021/07/08 05:52:04;;;;;;;9.32;2.72;;;27.70;79.50;;;;;;4956546;28;20118;-72
2021/07/08 05:54:30;;;;;;;7.28;3.08;;;27.90;79.00;;;;;;4957010;28;20118;-72
2021/07/08 05:56:55;;;;;;;7.05;2.50;;;28.00;77.50;;;;;;4956242;28;20533;-72
2021/07/08 05:59:24;;;;;;;6.13;2.40;;;28.10;77.50;;;;;;4956514;28;20439;-72
2021/07/08 06:01:50;;;;;;;7.17;2.70;;;28.00;76.40;;;;;;4956942;28;20070;-73
2021/07/08 06:04:16;;;;;;;44.75;3.85;;;27.80;78.40;;;;;;4956512;28;20439;-71
2021/07/08 06:06:41;;;;;;;6.43;2.75;;;27.70;77.10;;;;;;4956382;29;20023;-73
2021/07/08 06:09:07;;;;;;;9.30;2.38;;;27.60;76.80;;;;;;4956289;29;20387;-84
2021/07/08 06:11:33;;;;;;;4.47;2.00;;;27.70;77.40;;;;;;4955073;29;20188;-81
2021/07/08 06:13:59;;;;;;;2.30;2.10;;;27.90;76.00;;;;;;4956356;28;20550;-82
2021/07/08 06:16:24;;;;;;;6.95;2.13;;;28.00;76.70;;;;;;4955876;29;20475;-76
2021/07/08 06:18:50;;;;;;;15.27;3.20;;;28.30;75.10;;;;;;4956046;29;20024;-85
2021/07/08 06:21:16;;;;;;;2.33;2.13;;;28.40;73.90;;;;;;4955847;29;20066;-76
2021/07/08 06:23:41;;;;;;;6.75;2.13;;;28.60;73.80;;;;;;4955975;28;20060;-74
2021/07/08 06:26:07;;;;;;;2.40;1.90;;;28.70;73.50;;;;;;4955985;28;20039;-74
2021/07/08 06:28:34;;;;;;;4.20;2.20;;;28.70;72.70;;;;;;4955851;28;20106;-75
2021/07/08 06:31:00;;;;;;;3.03;2.60;;;28.50;72.50;;;;;;4955807;28;20106;-68
2021/07/08 06:33:26;;;;;;;44.45;3.95;;;28.40;72.80;;;;;;4955810;28;20064;-68
2021/07/08 06:35:52;;;;;;;8.80;2.58;;;28.10;72.40;;;;;;4955860;29;20118;-71
2021/07/08 06:38:17;;;;;;;4.95;2.50;;;28.00;73.70;;;;;;4955340;28;20378;-73
2021/07/08 06:40:43;;;;;;;4.72;2.70;;;27.60;73.80;;;;;;4956806;28;20603;-79
2021/07/08 06:43:09;;;;;;;21.98;3.67;;;27.50;75.30;;;;;;4955644;28;20035;-79
2021/07/08 06:45:36;;;;;;;6.53;2.08;;;27.50;75.20;;;;;;4954476;28;20030;-79
2021/07/08 06:48:04;;;;;;;7.75;2.38;;;27.40;75.50;;;;;;4955162;28;20032;-82
2021/07/08 06:50:34;;;;;;;4.35;2.55;;;27.60;75.50;;;;;;4954874;28;20113;-84
2021/07/08 06:53:00;;;;;;;7.07;2.28;;;27.50;74.50;;;;;;4954983;28;20039;-77
2021/07/08 06:55:26;;;;;;;6.65;2.60;;;27.50;73.80;;;;;;4955491;28;20035;-82
2021/07/08 06:57:52;;;;;;;6.20;2.45;;;27.60;74.50;;;;;;4955667;28;20034;-79
2021/07/08 07:00:30;;;;;;;4.80;2.17;;;27.60;74.90;;;;;;4955298;28;20031;-81
2021/07/08 07:02:58;;;;;;;6.45;2.42;;;27.60;75.40;;;;;;4954257;29;20035;-81
2021/07/08 07:05:25;;;;;;;6.18;2.53;;;27.70;76.10;;;;;;4955340;28;20027;-68
2021/07/08 07:07:51;;;;;;;2.88;2.30;;;27.70;74.70;;;;;;4955772;28;20114;-68
2021/07/08 07:10:20;;;;;;;8.38;2.83;;;27.80;74.70;;;;;;4954706;28;20074;-69
2021/07/08 07:12:47;;;;;;;5.43;2.30;;;28.00;73.70;;;;;;4954767;28;20102;-69
2021/07/08 07:15:18;;;;;;;9.10;2.30;;;28.10;73.00;;;;;;4955014;28;20027;-70
2021/07/08 07:17:47;;;;;;;4.15;2.00;;;28.20;72.60;;;;;;4955265;28;20473;-69
2021/07/08 07:20:13;;;;;;;6.03;2.50;;;28.10;72.50;;;;;;4955406;28;20106;-69
2021/07/08 07:22:44;;;;;;;4.90;2.30;;;27.90;71.60;;;;;;4955138;28;20043;-69
2021/07/08 07:25:11;;;;;;;7.68;2.17;;;27.90;71.70;;;;;;4955212;28;20078;-67
2021/07/08 07:27:37;;;;;;;1.73;1.35;;;28.00;70.90;;;;;;4954493;28;20058;-67
2021/07/08 07:30:05;;;;;;;43.28;3.45;;;28.00;70.60;;;;;;4954471;29;20463;-69
2021/07/08 07:32:32;;;;;;;2.47;1.83;;;27.90;70.70;;;;;;4952136;29;20038;-72
2021/07/08 07:34:58;;;;;;;4.43;2.03;;;27.80;71.50;;;;;;4953837;28;20034;-71
2021/07/08 07:37:24;;;;;;;2.53;1.70;;;27.90;69.70;;;;;;4954360;28;20019;-71
2021/07/08 07:39:50;;;;;;;2.72;1.60;;;27.90;70.20;;;;;;4954365;28;20020;-69
2021/07/08 07:42:16;;;;;;;6.80;1.80;;;27.90;69.70;;;;;;4954218;28;20042;-70
2021/07/08 07:44:47;;;;;;;2.92;1.65;;;28.00;70.50;;;;;;4954537;28;20031;-69
2021/07/08 07:47:13;;;;;;;3.08;1.73;;;28.10;69.60;;;;;;4954181;28;20023;-69
2021/07/08 07:49:39;;;;;;;3.97;2.03;;;28.20;69.30;;;;;;4953317;28;20038;-67
2021/07/08 07:52:05;;;;;;;4.38;1.70;;;28.00;68.40;;;;;;4954385;28;20039;-68
2021/07/08 07:54:33;;;;;;;9.02;2.28;;;28.10;70.20;;;;;;4954213;28;20032;-66
2021/07/08 07:57:01;;;;;;;5.55;1.60;;;28.10;68.90;;;;;;4954467;28;20046;-66
2021/07/08 07:59:27;;;;;;;2.53;1.38;;;28.20;67.80;;;;;;4954156;28;20109;-67
2021/07/08 08:01:53;;;;;;;4.45;1.60;;;28.10;67.00;;;;;;4954393;28;20033;-66
2021/07/08 08:04:19;;;;;;;5.78;1.50;;;27.90;67.60;;;;;;4954409;28;20027;-67
2021/07/08 08:09:29;;;;;;;6.07;1.50;;;28.00;67.30;;;;;;4952978;29;20467;-69
2021/07/08 08:11:55;;;;;;;2.60;1.20;;;28.10;66.70;;;;;;4954267;28;20051;-68
2021/07/08 08:14:21;;;;;;;1.90;1.25;;;28.10;66.10;;;;;;4954242;29;20027;-68
2021/07/08 08:16:46;;;;;;;7.93;1.50;;;28.10;65.20;;;;;;4954212;29;20031;-68
2021/07/08 08:19:12;;;;;;;3.67;1.30;;;28.20;66.20;;;;;;4954294;28;20024;-69
2021/07/08 08:21:38;;;;;;;4.90;1.60;;;28.10;65.70;;;;;;4953984;29;20023;-69
2021/07/08 08:24:04;;;;;;;10.43;1.88;;;28.10;65.30;;;;;;4952852;29;20031;-69
2021/07/08 08:26:30;;;;;;;19.85;1.88;;;28.10;65.60;;;;;;4954034;29;20538;-68
2021/07/08 08:28:56;;;;;;;10.05;1.27;;;28.20;64.30;;;;;;4953969;28;20031;-69
2021/07/08 08:31:22;;;;;;;6.90;1.90;;;28.30;63.50;;;;;;4954312;28;20041;-69
2021/07/08 08:33:47;;;;;;;3.03;1.30;;;28.40;64.30;;;;;;4953819;28;20413;-68
2021/07/08 08:36:14;;;;;;;2.97;1.17;;;28.30;64.80;;;;;;4954097;29;20395;-67
2021/07/08 08:38:40;;;;;;;3.35;1.30;;;28.20;63.50;;;;;;4953971;28;20099;-67
2021/07/08 08:41:05;;;;;;;4.60;1.50;;;28.20;63.80;;;;;;4953847;28;20114;-69
2021/07/08 08:43:32;;;;;;;1.90;1.02;;;28.30;62.50;;;;;;4952532;29;20023;-68
2021/07/08 08:46:00;;;;;;;4.22;1.20;;;28.30;61.50;;;;;;4953907;28;20024;-68
2021/07/08 08:48:26;;;;;;;4.63;1.30;;;28.30;60.10;;;;;;4954123;29;20023;-69
2021/07/08 08:50:52;;;;;;;4.15;1.08;;;28.30;59.50;;;;;;4953501;29;20070;-67
2021/07/08 08:53:18;;;;;;;6.10;1.38;;;28.40;59.30;;;;;;4953486;29;20043;-67
2021/07/08 08:55:46;;;;;;;2.45;0.90;;;28.40;59.90;;;;;;4953599;28;20032;-67
2021/07/08 08:58:19;;;;;;;3.20;0.80;;;28.30;59.50;;;;;;4953773;28;20076;-67
2021/07/08 09:00:50;;;;;;;4.10;1.20;;;28.30;58.80;;;;;;4955589;28;20089;-70
2021/07/08 09:03:21;;;;;;;3.80;0.90;;;28.30;57.90;;;;;;4957999;28;20113;-69
2021/07/08 09:05:56;;;;;;;3.72;0.90;;;28.30;57.00;;;;;;4957332;28;20027;-68
2021/07/08 09:08:22;;;;;;;1.67;0.90;;;28.30;57.90;;;;;;4957873;28;20035;-68
2021/07/08 09:11:02;;;;;;;3.97;0.93;;;28.40;58.80;;;;;;4957031;29;20039;-68
2021/07/08 09:13:41;;;;;;;3.13;1.30;;;28.40;58.10;;;;;;4957491;28;20098;-67
2021/07/08 09:16:14;;;;;;;6.90;2.00;;;28.40;58.10;;;;;;4957473;29;20059;-69
2021/07/08 09:18:41;;;;;;;1.92;1.17;;;28.40;58.70;;;;;;4957588;28;20031;-68
2021/07/08 09:21:21;;;;;;;4.90;1.63;;;28.50;58.60;;;;;;4957732;28;20027;-70
2021/07/08 09:24:15;;;;;;;5.97;1.02;;;28.50;57.50;;;;;;4956988;28;20089;-72
2021/07/08 09:27:05;;;;;;;2.78;0.85;;;28.60;57.30;;;;;;4957173;28;20027;-73
2021/07/08 09:29:45;;;;;;;4.70;0.70;;;28.60;56.50;;;;;;4956920;29;20644;-72
2021/07/08 09:32:13;;;;;;;2.90;0.77;;;28.50;56.80;;;;;;4957143;28;20134;-72
2021/07/08 09:34:40;;;;;;;3.92;0.88;;;28.40;56.60;;;;;;4956596;28;20585;-72
2021/07/08 09:37:13;;;;;;;2.47;0.70;;;28.40;56.90;;;;;;4956768;28;20058;-73
2021/07/08 09:39:44;;;;;;;0.93;0.70;;;28.40;56.40;;;;;;4956451;29;20476;-73
2021/07/08 09:42:14;;;;;;;2.42;0.85;;;28.40;56.60;;;;;;4956599;28;20038;-74
2021/07/08 09:44:41;;;;;;;1.35;0.90;;;28.30;56.50;;;;;;4956354;28;20031;-71
2021/07/08 09:47:24;;;;;;;2.45;0.90;;;28.40;56.40;;;;;;4957001;28;20030;-71
2021/07/08 09:49:51;;;;;;;5.32;0.85;;;28.30;56.10;;;;;;4957139;28;20062;-71
2021/07/08 09:52:17;;;;;;;2.17;0.77;;;28.40;56.90;;;;;;4956915;28;20038;-71
2021/07/08 09:54:50;;;;;;;1.73;0.60;;;28.40;55.80;;;;;;4956932;28;20031;-72
2021/07/08 09:57:35;;;;;;;1.13;0.70;;;28.40;55.60;;;;;;4956350;28;20028;-70
2021/07/08 10:00:08;;;;;;;6.78;1.10;;;28.20;54.90;;;;;;4956429;28;20078;-71
2021/07/08 10:02:36;;;;;;;4.20;0.60;;;28.10;54.80;;;;;;4956039;28;20023;-71
2021/07/08 10:05:03;;;;;;;1.70;0.60;;;28.00;54.90;;;;;;4954059;29;20038;-71
2021/07/08 10:07:30;;;;;;;1.83;0.93;;;27.90;55.10;;;;;;4956280;28;20027;-72
2021/07/08 10:09:56;;;;;;;1.90;0.85;;;27.90;55.80;;;;;;4955981;28;20118;-72
2021/07/08 10:12:23;;;;;;;1.77;0.70;;;27.90;56.70;;;;;;4955476;28;20023;-72
2021/07/08 10:14:50;;;;;;;2.15;0.75;;;27.90;56.00;;;;;;4956123;28;20468;-72
2021/07/08 10:17:19;;;;;;;1.38;0.60;;;27.90;56.10;;;;;;4956689;28;20032;-72
2021/07/08 10:19:47;;;;;;;2.05;0.60;;;28.00;56.20;;;;;;4955557;28;20047;-72
2021/07/08 10:22:13;;;;;;;1.02;0.52;;;28.10;56.00;;;;;;4954574;28;20503;-72
2021/07/08 10:24:39;;;;;;;2.78;0.75;;;28.20;56.30;;;;;;4960026;28;20031;-70
2021/07/08 10:27:07;;;;;;;3.13;0.75;;;28.20;55.20;;;;;;4975538;28;20029;-70
2021/07/08 10:29:33;;;;;;;2.42;0.52;;;28.20;54.60;;;;;;4975397;28;20039;-70
2021/07/08 10:31:59;;;;;;;1.40;0.70;;;28.10;54.00;;;;;;4965084;28;20132;-70
2021/07/08 10:34:25;;;;;;;1.65;0.50;;;28.00;53.70;;;;;;4955616;28;20042;-70
2021/07/08 10:36:53;;;;;;;3.95;0.50;;;27.90;54.30;;;;;;4955546;28;20487;-70
2021/07/08 10:39:21;;;;;;;4.88;0.93;;;27.90;54.60;;;;;;4955690;28;20106;-70
2021/07/08 10:41:52;;;;;;;3.50;0.60;;;27.90;54.70;;;;;;4955593;28;20030;-70
2021/07/08 10:44:39;;;;;;;3.53;0.70;;;27.90;55.00;;;;;;4955553;28;20024;-70
2021/07/08 10:47:44;;;;;;;2.83;0.60;;;27.90;54.60;;;;;;4955597;28;20135;-71
2021/07/08 10:50:35;;;;;;;1.98;0.60;;;27.90;54.40;;;;;;4896026;29;20044;-71
2021/07/08 10:53:14;;;;;;;2.95;0.50;;;28.00;54.30;;;;;;4895510;29;20524;-71
2021/07/08 10:55:42;;;;;;;0.85;0.68;;;28.00;54.00;;;;;;4939269;28;20046;-73
2021/07/08 10:58:34;;;;;;;4.40;0.80;;;28.00;53.60;;;;;;4955229;29;20047;-73
2021/07/08 11:01:00;;;;;;;3.75;0.50;;;28.00;53.40;;;;;;4955028;28;20427;-72
2021/07/08 11:03:39;;;;;;;2.70;0.68;;;28.00;54.00;;;;;;4954853;28;20031;-70
2021/07/08 11:06:21;;;;;;;12.27;1.75;;;28.00;54.50;;;;;;4936254;29;20044;-75
2021/07/08 11:08:50;;;;;;;3.60;0.63;;;28.00;54.50;;;;;;4950130;29;20031;-75
2021/07/08 11:11:19;;;;;;;2.63;0.60;;;28.00;54.70;;;;;;4954665;28;20490;-75
2021/07/08 11:13:45;;;;;;;1.48;0.60;;;28.10;54.70;;;;;;4952295;29;20031;-74
2021/07/08 11:16:49;;;;;;;0.55;0.45;;;28.00;54.20;;;;;;4955149;29;20102;-73
2021/07/08 11:19:21;;;;;;;5.28;0.47;;;28.00;54.30;;;;;;4954405;29;20035;-75
2021/07/08 11:21:51;;;;;;;1.40;0.50;;;28.00;53.70;;;;;;4954973;28;20030;-75
2021/07/08 11:24:25;;;;;;;1.20;0.60;;;27.90;53.20;;;;;;4954431;28;20102;-80
2021/07/08 11:27:03;;;;;;;1.50;0.70;;;27.70;53.40;;;;;;4952718;29;20387;-83
2021/07/08 11:29:36;;;;;;;4.97;0.63;;;27.60;53.90;;;;;;4955531;28;20046;-81
2021/07/08 11:32:21;;;;;;;4.32;0.50;;;27.60;55.10;;;;;;4955426;28;20031;-83
2021/07/08 11:35:02;;;;;;;0.70;0.40;;;27.70;56.50;;;;;;4954257;28;20030;-82
2021/07/08 11:37:42;;;;;;;4.47;0.60;;;27.70;57.00;;;;;;4954774;29;20118;-79
2021/07/08 11:40:11;;;;;;;1.52;0.45;;;27.80;56.40;;;;;;4943908;28;20394;-79
2021/07/08 11:42:38;;;;;;;1.20;0.50;;;27.80;56.10;;;;;;4934836;29;20365;-78
2021/07/08 11:45:11;;;;;;;3.72;0.40;;;27.80;56.20;;;;;;4935595;29;20039;-80
2021/07/08 11:47:57;;;;;;;0.82;0.45;;;27.80;55.70;;;;;;4950440;28;20024;-79
2021/07/08 11:50:32;;;;;;;2.38;0.30;;;27.70;55.80;;;;;;4954259;28;20065;-81
2021/07/08 11:53:12;;;;;;;2.75;0.45;;;27.60;55.30;;;;;;4954013;28;20050;-81
2021/07/08 11:55:44;;;;;;;1.75;0.60;;;27.50;54.50;;;;;;4953662;29;20099;-80
2021/07/08 11:58:12;;;;;;;6.22;0.60;;;27.40;54.40;;;;;;4954511;28;20019;-80
2021/07/08 12:00:48;;;;;;;1.58;0.77;;;27.40;55.20;;;;;;4954605;28;20471;-82
2021/07/08 12:03:32;;;;;;;1.95;0.60;;;27.30;56.00;;;;;;4954821;28;20431;-83
2021/07/08 12:06:03;;;;;;;1.63;0.60;;;27.20;56.50;;;;;;4953768;28;20031;-82
2021/07/08 12:08:33;;;;;;;1.55;0.70;;;27.20;57.30;;;;;;4954397;28;20027;-77
2021/07/08 12:11:18;;;;;;;3.38;1.25;;;27.20;58.60;;;;;;4953992;28;20403;-81
2021/07/08 12:13:53;;;;;;;1.10;0.70;;;27.10;58.50;;;;;;4954167;28;20027;-81
2021/07/08 12:16:33;;;;;;;2.75;0.70;;;27.10;58.70;;;;;;4954488;28;20575;-80
2021/07/08 12:19:04;;;;;;;3.90;0.82;;;27.10;58.60;;;;;;4953806;28;20479;-78
2021/07/08 12:21:31;;;;;;;1.42;0.68;;;27.10;59.20;;;;;;4953907;28;20023;-81
2021/07/08 12:24:10;;;;;;;1.35;0.60;;;27.10;59.10;;;;;;4952359;29;20043;-81
2021/07/08 12:26:39;;;;;;;5.30;1.00;;;27.00;58.70;;;;;;4952924;29;20019;-81
2021/07/08 12:29:24;;;;;;;1.77;0.65;;;26.90;59.10;;;;;;4954097;28;20122;-87
2021/07/08 12:31:57;;;;;;;6.40;1.52;;;26.90;59.20;;;;;;4953601;29;20027;-89
2021/07/08 12:34:38;;;;;;;2.67;0.50;;;26.90;58.70;;;;;;4954479;28;20110;-89
2021/07/08 12:37:16;;;;;;;1.15;0.47;;;26.90;58.70;;;;;;4954607;29;20027;-90
2021/07/08 12:39:42;;;;;;;11.25;1.15;;;27.00;59.80;;;;;;4953904;28;20031;-75
2021/07/08 12:42:18;;;;;;;1.67;0.40;;;27.10;59.50;;;;;;4954257;28;20027;-75
2021/07/08 12:44:47;;;;;;;2.42;0.43;;;27.10;58.80;;;;;;4953381;28;20031;-76
2021/07/08 12:47:13;;;;;;;2.88;0.30;;;27.10;59.00;;;;;;4952543;28;20030;-75
2021/07/08 12:49:40;;;;;;;2.67;0.45;;;27.00;59.30;;;;;;4952852;28;20659;-75
2021/07/08 12:52:06;;;;;;;2.10;0.38;;;26.90;59.60;;;;;;4953441;28;20024;-76
2021/07/08 12:54:32;;;;;;;1.52;0.47;;;26.90;59.80;;;;;;4953570;28;20047;-75
2021/07/08 12:57:13;;;;;;;2.03;0.30;;;26.70;59.30;;;;;;4953631;28;20036;-75
2021/07/08 12:59:58;;;;;;;0.85;0.30;;;26.70;61.20;;;;;;4953906;28;20439;-75
2021/07/08 13:02:35;;;;;;;0.63;0.30;;;26.70;60.00;;;;;;4953411;28;20476;-75
2021/07/08 13:05:12;;;;;;;0.65;0.30;;;26.80;58.70;;;;;;4953779;28;20082;-75
2021/07/08 13:07:48;;;;;;;0.80;0.30;;;26.90;59.30;;;;;;4953597;28;20502;-75
2021/07/08 13:10:13;;;;;;;42.35;3.50;;;26.90;58.70;;;;;;4953634;28;20376;-76
2021/07/08 13:12:40;;;;;;;3.65;0.57;;;26.90;58.80;;;;;;4953392;28;20030;-76
2021/07/08 13:15:21;;;;;;;17.33;0.80;;;27.00;59.10;;;;;;4953436;28;20035;-71
2021/07/08 13:17:59;;;;;;;2.55;0.50;;;27.00;58.30;;;;;;4953458;28;20023;-76
2021/07/08 13:20:27;;;;;;;2.22;0.50;;;27.00;58.60;;;;;;4953561;28;20166;-72
2021/07/08 13:22:54;;;;;;;2.85;0.43;;;26.90;58.40;;;;;;4953352;28;20027;-71
2021/07/08 13:25:22;;;;;;;3.30;0.57;;;27.00;58.60;;;;;;4953102;28;20035;-73
2021/07/08 13:27:50;;;;;;;0.55;0.35;;;26.90;58.60;;;;;;4953697;28;20068;-71
2021/07/08 13:30:36;;;;;;;0.80;0.40;;;26.90;58.50;;;;;;4953205;28;20035;-72